createdAt,value
2022-10-13T00:03:23.286Z,50.50
2022-10-13T00:08:30.509Z,50.47
2022-10-13T00:13:37.693Z,50.60
2022-10-13T00:18:44.881Z,50.64
2022-10-13T00:23:52.113Z,50.71
2022-10-13T00:28:59.413Z,50.71
2022-10-13T00:34:06.458Z,50.77
2022-10-13T00:39:13.733Z,50.69
2022-10-13T00:44:20.912Z,50.85
2022-10-13T00:49:28.157Z,50.82
2022-10-13T00:54:35.347Z,50.87
2022-10-13T00:59:42.524Z,50.88
2022-10-13T01:04:49.762Z,50.87
2022-10-13T01:09:56.950Z,50.96
2022-10-13T01:15:04.164Z,51.00
2022-10-13T01:20:11.321Z,50.96
2022-10-13T01:25:18.536Z,50.89
2022-10-13T01:30:25.751Z,50.88
2022-10-13T01:35:32.990Z,50.84
2022-10-13T01:40:42.643Z,50.77
2022-10-13T01:45:49.843Z,50.75
2022-10-13T01:50:57.031Z,50.66
2022-10-13T01:56:04.279Z,50.59
2022-10-13T02:01:11.471Z,50.55
2022-10-13T02:06:18.665Z,50.48
2022-10-13T02:11:25.893Z,50.42
2022-10-13T02:16:33.069Z,50.25
2022-10-13T02:21:40.280Z,50.19
2022-10-13T02:26:47.537Z,50.18
2022-10-13T02:31:54.831Z,50.11
2022-10-13T02:37:02.193Z,50.10
2022-10-13T02:42:09.489Z,50.00
2022-10-13T02:47:16.646Z,50.03
2022-10-13T02:52:23.823Z,49.89
2022-10-13T02:57:31.037Z,49.91
2022-10-13T03:02:38.227Z,50.16
2022-10-13T03:07:45.503Z,50.06
2022-10-13T03:12:52.765Z,50.01
2022-10-13T03:17:59.945Z,50.03
2022-10-13T03:23:07.167Z,49.93
2022-10-13T03:28:14.555Z,49.92
2022-10-13T03:33:21.635Z,49.93
2022-10-13T03:38:28.842Z,49.78
2022-10-13T03:43:36.035Z,49.81
2022-10-13T03:48:43.255Z,49.75
2022-10-13T03:53:50.476Z,49.73
2022-10-13T03:58:57.647Z,49.68
2022-10-13T04:04:04.868Z,49.64
2022-10-13T04:09:12.089Z,49.58
2022-10-13T04:14:19.422Z,49.53
2022-10-13T04:19:26.479Z,49.45
2022-10-13T04:24:33.682Z,49.36
2022-10-13T04:29:40.913Z,49.32
2022-10-13T04:34:49.010Z,49.26
2022-10-13T04:39:56.225Z,49.21
2022-10-13T04:45:03.559Z,49.18
2022-10-13T04:50:10.629Z,49.12
2022-10-13T04:55:17.962Z,49.10
2022-10-13T05:00:25.264Z,49.03
2022-10-13T05:05:32.443Z,49.01
2022-10-13T05:10:39.653Z,48.96
2022-10-13T05:15:46.828Z,48.94
2022-10-13T05:20:53.993Z,48.93
2022-10-13T05:26:01.184Z,48.93
2022-10-13T05:31:08.397Z,48.89
2022-10-13T05:36:15.547Z,48.84
2022-10-13T05:41:22.719Z,48.81
2022-10-13T05:46:29.909Z,48.84
2022-10-13T05:51:37.085Z,48.82
2022-10-13T05:56:44.309Z,48.78
2022-10-13T06:01:51.565Z,48.85
2022-10-13T06:06:58.697Z,49.47
2022-10-13T06:12:05.878Z,49.34
2022-10-13T06:17:13.078Z,49.22
2022-10-13T06:22:20.599Z,49.04
2022-10-13T06:27:27.478Z,48.97
2022-10-13T06:32:34.757Z,48.84
2022-10-13T06:37:41.968Z,48.72
2022-10-13T06:42:49.133Z,48.82
2022-10-13T06:47:56.365Z,48.68
2022-10-13T06:53:03.558Z,48.68
2022-10-13T06:58:10.842Z,48.68
2022-10-13T07:03:18.094Z,48.68
2022-10-13T07:08:25.244Z,48.68
2022-10-13T07:13:34.988Z,48.65
2022-10-13T07:18:39.697Z,48.74
2022-10-13T07:23:46.915Z,48.68
2022-10-13T07:28:54.183Z,48.42
2022-10-13T07:34:01.361Z,48.44
2022-10-13T07:39:08.488Z,48.36
2022-10-13T07:44:15.663Z,48.75
2022-10-13T07:49:22.923Z,48.64
2022-10-13T07:54:30.108Z,48.90
2022-10-13T07:59:37.245Z,48.90
2022-10-13T08:04:44.448Z,48.87
2022-10-13T08:09:51.610Z,48.81
2022-10-13T08:15:01.813Z,48.80
2022-10-13T08:20:06.058Z,48.67
2022-10-13T08:25:13.267Z,48.62
2022-10-13T08:30:20.680Z,48.90
2022-10-13T08:35:30.146Z,48.80
2022-10-13T08:40:34.838Z,48.81
2022-10-13T08:45:42.492Z,48.80
2022-10-13T08:50:49.306Z,48.80
2022-10-13T08:55:56.657Z,48.78
2022-10-13T09:01:03.912Z,48.69
2022-10-13T09:06:11.066Z,48.76
2022-10-13T09:11:18.237Z,48.73
2022-10-13T09:16:25.448Z,48.73
2022-10-13T09:21:32.767Z,48.68
2022-10-13T09:26:39.909Z,48.68
2022-10-13T09:31:47.168Z,48.74
2022-10-13T09:36:54.508Z,48.69
2022-10-13T09:42:01.619Z,48.65
2022-10-13T09:47:08.829Z,48.73
2022-10-13T09:52:16.110Z,48.87
2022-10-13T09:57:23.319Z,48.87
2022-10-13T10:02:30.708Z,48.92
2022-10-13T10:07:37.827Z,48.94
2022-10-13T10:12:45.043Z,48.95
2022-10-13T10:17:52.295Z,49.12
2022-10-13T10:22:59.601Z,49.22
2022-10-13T10:28:06.844Z,49.20
2022-10-13T10:33:14.110Z,49.16
2022-10-13T10:38:21.519Z,49.23
2022-10-13T10:43:28.994Z,49.10
2022-10-13T10:48:36.214Z,49.10
2022-10-13T10:53:43.498Z,49.12
2022-10-13T10:58:50.924Z,49.06
2022-10-13T11:03:58.128Z,49.12
2022-10-13T11:09:05.329Z,49.07
2022-10-13T11:14:12.576Z,49.07
2022-10-13T11:19:19.740Z,49.01
2022-10-13T11:24:26.995Z,49.13
2022-10-13T11:29:34.238Z,49.22
2022-10-13T11:34:41.440Z,49.13
2022-10-13T11:39:48.683Z,49.17
2022-10-13T11:44:55.889Z,49.19
2022-10-13T11:50:03.081Z,49.12
2022-10-13T11:55:10.346Z,49.23
2022-10-13T12:00:17.519Z,49.65
2022-10-13T12:05:24.723Z,49.44
2022-10-13T12:10:32.009Z,49.52
2022-10-13T12:15:39.184Z,49.43
2022-10-13T12:20:46.451Z,49.48
2022-10-13T12:25:53.795Z,49.43
2022-10-13T12:31:00.905Z,49.44
2022-10-13T12:36:08.247Z,49.46
2022-10-13T12:41:15.660Z,49.48
2022-10-13T12:46:22.669Z,49.51
2022-10-13T12:51:29.923Z,49.52
2022-10-13T12:56:37.117Z,49.48
2022-10-13T13:01:44.366Z,49.45
2022-10-13T13:06:51.548Z,49.48
2022-10-13T13:11:58.837Z,49.58
2022-10-13T13:17:05.987Z,49.52
2022-10-13T13:22:13.468Z,49.57
2022-10-13T13:27:22.295Z,49.57
2022-10-13T13:32:29.095Z,49.54
2022-10-13T13:37:36.336Z,49.79
2022-10-13T13:42:43.592Z,49.72
2022-10-13T13:47:50.809Z,49.68
2022-10-13T13:52:58.018Z,49.91
2022-10-13T13:58:05.332Z,50.67
2022-10-13T14:03:17.097Z,50.29
2022-10-13T14:08:19.834Z,50.29
2022-10-13T14:13:27.085Z,50.74
2022-10-13T14:18:34.372Z,50.29
2022-10-13T14:23:41.572Z,50.33
2022-10-13T14:28:48.928Z,50.26
2022-10-13T14:33:56.085Z,50.18
2022-10-13T14:39:03.287Z,50.19
2022-10-13T14:44:10.630Z,50.21
2022-10-13T14:49:17.815Z,50.34
2022-10-13T14:54:25.048Z,50.48
2022-10-13T14:59:32.331Z,50.45
2022-10-13T15:04:39.527Z,50.43
2022-10-13T15:09:52.947Z,50.39
2022-10-13T15:14:53.976Z,50.62
2022-10-13T15:20:01.137Z,50.54
2022-10-13T15:25:08.365Z,50.54
2022-10-13T15:30:15.526Z,50.47
2022-10-13T15:35:22.763Z,50.44
2022-10-13T15:40:29.932Z,50.45
2022-10-13T15:45:37.207Z,50.49
2022-10-13T15:50:44.337Z,50.42
2022-10-13T15:55:51.558Z,50.47
2022-10-13T16:00:58.939Z,50.55
2022-10-13T16:06:06.019Z,50.52
2022-10-13T16:11:13.265Z,50.59
2022-10-13T16:16:20.486Z,50.52
2022-10-13T16:21:27.705Z,50.67
2022-10-13T16:26:34.865Z,50.74
2022-10-13T16:31:42.104Z,50.79
2022-10-13T16:36:49.290Z,50.97
2022-10-13T16:41:56.489Z,50.99
2022-10-13T16:47:03.720Z,51.05
2022-10-13T16:52:11.574Z,51.08
2022-10-13T16:57:19.087Z,51.23
2022-10-13T17:02:26.008Z,51.58
2022-10-13T17:07:33.225Z,51.53
2022-10-13T17:12:40.485Z,51.58
2022-10-13T17:17:47.769Z,51.64
2022-10-13T17:22:54.964Z,51.68
2022-10-13T17:28:02.449Z,51.66
2022-10-13T17:33:10.088Z,51.43
2022-10-13T17:38:17.572Z,51.54
2022-10-13T17:43:25.090Z,51.82
2022-10-13T17:48:32.847Z,51.67
2022-10-13T17:53:40.429Z,51.70
2022-10-13T17:58:47.930Z,51.67
2022-10-13T18:03:55.322Z,51.96
2022-10-13T18:09:02.859Z,52.02
2022-10-13T18:14:10.674Z,51.97
2022-10-13T18:19:18.020Z,52.22
2022-10-13T18:24:25.698Z,52.83
2022-10-13T18:29:33.320Z,52.09
2022-10-13T18:34:40.949Z,52.12
2022-10-13T18:39:48.541Z,51.93
2022-10-13T18:44:56.150Z,51.81
2022-10-13T18:50:03.891Z,51.77
2022-10-13T18:55:11.490Z,51.69
2022-10-13T19:00:19.100Z,51.57
2022-10-13T19:05:26.738Z,51.54
2022-10-13T19:10:34.280Z,51.53
2022-10-13T19:15:41.938Z,51.56
2022-10-13T19:20:49.733Z,51.38
2022-10-13T19:25:57.375Z,51.39
2022-10-13T19:31:04.995Z,51.38
2022-10-13T19:36:12.328Z,51.54
2022-10-13T19:41:19.805Z,51.67
2022-10-13T19:46:27.526Z,51.68
2022-10-13T19:51:36.193Z,51.65
2022-10-13T19:56:43.776Z,51.45
2022-10-13T20:01:51.902Z,51.36
2022-10-13T20:06:59.557Z,50.96
2022-10-13T20:12:07.232Z,50.60
2022-10-13T20:17:14.583Z,50.22
2022-10-13T20:22:21.784Z,50.67
2022-10-13T20:27:29.026Z,50.21
2022-10-13T20:32:36.295Z,49.97
2022-10-13T20:37:43.514Z,49.97
2022-10-13T20:42:50.649Z,49.63
2022-10-13T20:47:58.449Z,49.45
2022-10-13T20:53:05.703Z,49.45
2022-10-13T20:58:12.948Z,49.21
2022-10-13T21:03:20.324Z,49.08
2022-10-13T21:08:27.568Z,49.00
2022-10-13T21:13:34.719Z,48.88
2022-10-13T21:18:41.945Z,48.71
2022-10-13T21:23:49.155Z,48.72
2022-10-13T21:28:56.447Z,48.51
2022-10-13T21:34:03.544Z,48.33
2022-10-13T21:39:12.819Z,48.57
2022-10-13T21:44:20.047Z,48.65
2022-10-13T21:49:27.306Z,48.66
2022-10-13T21:54:34.587Z,48.84
2022-10-13T21:59:41.747Z,48.85
2022-10-13T22:04:48.959Z,48.89
2022-10-13T22:09:56.229Z,48.79
2022-10-13T22:15:03.382Z,48.57
2022-10-13T22:20:10.547Z,48.49
2022-10-13T22:25:19.602Z,48.37
2022-10-13T22:30:26.808Z,48.44
2022-10-13T22:35:34.031Z,48.45
2022-10-13T22:40:41.323Z,48.29
2022-10-13T22:45:48.508Z,48.22
2022-10-13T22:50:55.743Z,48.27
2022-10-13T22:56:03.001Z,48.26
2022-10-13T23:01:10.242Z,48.33
2022-10-13T23:06:17.464Z,48.37
2022-10-13T23:11:24.721Z,48.49
2022-10-13T23:16:31.946Z,48.50
2022-10-13T23:21:39.177Z,48.60
2022-10-13T23:26:46.522Z,48.23
2022-10-13T23:31:53.653Z,48.19
2022-10-13T23:37:00.861Z,48.00
2022-10-13T23:42:08.082Z,47.91
2022-10-13T23:47:18.786Z,47.91
2022-10-13T23:52:25.541Z,47.98
2022-10-13T23:57:32.777Z,47.97
